Alexandria, Canada
Current Conditions -  °F | °C
As of 9:53 PM on Monday 20 Oct 2014 (Local Time) from KMSS Reporting Station
Overcast Overcast  
Wind Chill: 44°   Ceiling: 9500
Heat Index: 44°   Visibility: 10mi
Dew Point: 44°   Wind: 0mph
Humidity: 100%   Direction: NA
Pressure: 29.92"   Gusts: NA
Location:  45.3°N, 74.63°W
Report Text: KMSS 210153Z AUTO 00000KT 10SM FEW050 BKN095 OVC110 07/07 A2992 RMK AO2 RAB03E08 SLP136 P0000 T00670067
Loading
Personal Weather Stations






























Interactive Weather Map
Tropical Storm Tracking
New forecast layout! Learn more

10-Day Weather Forecast

Advertisements
Track Severe Weather on mobile